createdAt,value
2023-01-07T00:00:29.914Z,98618.34
2023-01-07T00:03:33.718Z,98604.78
2023-01-07T00:06:40.921Z,98616.41
2023-01-07T00:09:44.145Z,98616.41
2023-01-07T00:12:49.782Z,98616.50
2023-01-07T00:15:53.600Z,98594.63
2023-01-07T00:18:58.521Z,98599.72
2023-01-07T00:22:03.186Z,98616.50
2023-01-07T00:25:07.433Z,98612.91
2023-01-07T00:28:10.687Z,98613.84
2023-01-07T00:31:15.898Z,98601.97
2023-01-07T00:34:23.545Z,98598.69
2023-01-07T00:37:45.287Z,98607.28
2023-01-07T00:40:49.563Z,98599.50
2023-01-07T00:43:53.041Z,98603.00
2023-01-07T00:46:56.345Z,98590.25
2023-01-07T00:49:59.695Z,98596.16
2023-01-07T00:53:05.163Z,98597.84
2023-01-07T00:56:10.101Z,98585.19
2023-01-07T00:59:16.914Z,98597.19
2023-01-07T01:02:21.631Z,98603.06
2023-01-07T01:05:25.242Z,98590.34
2023-01-07T01:08:30.024Z,98592.78
2023-01-07T01:11:33.503Z,98591.19
2023-01-07T01:14:36.758Z,98596.25
2023-01-07T01:17:40.806Z,98587.22
2023-01-07T01:20:44.247Z,98595.59
2023-01-07T01:23:49.286Z,98590.44
2023-01-07T01:26:53.528Z,98606.47
2023-01-07T01:29:56.904Z,98594.47
2023-01-07T01:33:00.900Z,98592.88
2023-01-07T01:36:05.535Z,98593.72
2023-01-07T01:39:10.397Z,98584.59
2023-01-07T01:42:14.999Z,98543.34
2023-01-07T01:45:18.819Z,98586.28
2023-01-07T01:48:23.154Z,98576.66
2023-01-07T01:51:34.437Z,98577.88
2023-01-07T01:54:41.003Z,98588.28
2023-01-07T01:57:45.455Z,98580.78
2023-01-07T02:00:50.124Z,98571.41
2023-01-07T02:03:54.112Z,98570.31
2023-01-07T02:07:03.618Z,98573.13
2023-01-07T02:10:16.389Z,98535.94
2023-01-07T02:13:32.434Z,98558.78
2023-01-07T02:16:44.943Z,98572.44
2023-01-07T02:20:16.638Z,98573.09
2023-01-07T02:23:52.442Z,98564.47
2023-01-07T02:27:22.741Z,98562.03
2023-01-07T02:30:48.001Z,98569.72
2023-01-07T02:33:59.404Z,98561.25
2023-01-07T02:37:10.814Z,98551.78
2023-01-07T02:40:20.791Z,98550.06
2023-01-07T02:43:31.109Z,98538.03
2023-01-07T02:46:39.651Z,98509.59
2023-01-07T02:49:44.390Z,98550.13
2023-01-07T02:52:48.397Z,98545.00
2023-01-07T02:56:04.868Z,98538.06
2023-01-07T02:59:42.015Z,98536.22
2023-01-07T03:03:08.239Z,98536.13
2023-01-07T03:06:33.617Z,98522.50
2023-01-07T03:09:45.269Z,98502.56
2023-01-07T03:12:57.559Z,98523.50
2023-01-07T03:16:04.834Z,98519.31
2023-01-07T03:19:10.964Z,98521.81
2023-01-07T03:22:23.768Z,98525.66
2023-01-07T03:25:30.964Z,98521.66
2023-01-07T03:28:41.390Z,98507.03
2023-01-07T03:31:57.825Z,98497.78
2023-01-07T03:35:01.333Z,98513.19
2023-01-07T03:38:09.021Z,98494.38
2023-01-07T03:41:33.474Z,98503.69
2023-01-07T03:44:37.397Z,98501.22
2023-01-07T03:47:45.796Z,98487.03
2023-01-07T03:50:50.055Z,98464.97
2023-01-07T03:53:54.848Z,98427.66
2023-01-07T03:56:58.980Z,98505.44
2023-01-07T04:00:02.573Z,98498.69
2023-01-07T04:03:07.096Z,98496.13
2023-01-07T04:06:15.026Z,98485.06
2023-01-07T04:09:22.003Z,98480.78
2023-01-07T04:12:28.429Z,98480.75
2023-01-07T04:15:31.769Z,98467.16
2023-01-07T04:18:35.422Z,98468.88
2023-01-07T04:21:38.983Z,98452.69
2023-01-07T04:24:43.962Z,98446.59
2023-01-07T04:27:50.533Z,98460.31
2023-01-07T04:34:29.341Z,98458.72
2023-01-07T04:37:32.960Z,98450.19
2023-01-07T04:40:36.884Z,98443.41
2023-01-07T04:43:40.780Z,98456.06
2023-01-07T04:46:45.076Z,98447.56
2023-01-07T04:49:50.545Z,98447.56
2023-01-07T04:52:54.311Z,98398.66
2023-01-07T04:55:59.126Z,98432.38
2023-01-07T04:59:02.618Z,98430.69
2023-01-07T05:02:08.802Z,98427.97
2023-01-07T05:05:14.212Z,98430.69
2023-01-07T05:08:18.685Z,98430.47
2023-01-07T05:11:41.925Z,98421.13
2023-01-07T05:14:45.361Z,98418.78
2023-01-07T05:17:48.788Z,98417.69
2023-01-07T05:20:54.279Z,98403.22
2023-01-07T05:23:57.717Z,98405.06
2023-01-07T05:27:01.022Z,98405.75
2023-01-07T05:30:04.788Z,98387.31
2023-01-07T05:33:08.702Z,98401.63
2023-01-07T05:36:14.478Z,98395.72
2023-01-07T05:39:19.849Z,98401.59
2023-01-07T05:42:23.267Z,98393.84
2023-01-07T05:45:27.085Z,98390.47
2023-01-07T05:48:30.432Z,98384.75
2023-01-07T05:51:36.067Z,98345.75
2023-01-07T05:54:39.677Z,98390.75
2023-01-07T05:57:43.118Z,98386.22
2023-01-07T06:00:48.489Z,98389.59
2023-01-07T06:03:51.904Z,98387.13
2023-01-07T06:06:56.618Z,98380.13
2023-01-07T06:10:01.868Z,98375.75
2023-01-07T06:13:06.390Z,98385.25
2023-01-07T06:16:10.881Z,98374.06
2023-01-07T06:19:14.412Z,98358.84
2023-01-07T06:22:19.447Z,98372.38
2023-01-07T06:25:22.878Z,98372.44
2023-01-07T06:28:26.350Z,98369.88
2023-01-07T06:31:29.674Z,98362.88
2023-01-07T06:34:33.252Z,98362.91
2023-01-07T06:37:38.451Z,98353.56
2023-01-07T06:40:41.775Z,98362.03
2023-01-07T06:43:45.058Z,98354.28
2023-01-07T06:46:50.439Z,98347.47
2023-01-07T06:49:53.853Z,98317.09
2023-01-07T06:52:58.600Z,98344.03
2023-01-07T06:56:01.991Z,98348.34
2023-01-07T06:59:05.806Z,98345.78
2023-01-07T07:02:09.054Z,98350.03
2023-01-07T07:05:12.605Z,98343.66
2023-01-07T07:08:17.198Z,98343.94
2023-01-07T07:11:20.670Z,98339.63
2023-01-07T07:14:24.307Z,98335.41
2023-01-07T07:17:27.558Z,98335.31
2023-01-07T07:20:30.900Z,98344.88
2023-01-07T07:23:35.821Z,98335.34
2023-01-07T07:26:39.284Z,98325.22
2023-01-07T07:29:42.566Z,98323.44
2023-01-07T07:32:46.446Z,98330.16
2023-01-07T07:35:50.408Z,98331.66
2023-01-07T07:38:55.090Z,98326.59
2023-01-07T07:41:58.309Z,98324.94
2023-01-07T07:45:07.219Z,98324.09
2023-01-07T07:48:11.766Z,98318.16
2023-01-07T07:51:15.096Z,98318.94
2023-01-07T07:54:23.047Z,98312.78
2023-01-07T07:57:26.999Z,98310.94
2023-01-07T08:00:30.225Z,98315.44
2023-01-07T08:03:33.629Z,98307.75
2023-01-07T08:06:37.376Z,98301.66
2023-01-07T08:09:42.459Z,98305.91
2023-01-07T08:12:45.761Z,98311.78
2023-01-07T08:15:49.255Z,98305.56
2023-01-07T08:18:52.789Z,98300.63
2023-01-07T08:21:56.161Z,98297.06
2023-01-07T08:25:00.954Z,98291.22
2023-01-07T08:28:04.767Z,98296.16
2023-01-07T08:31:09.207Z,98278.34
2023-01-07T08:34:12.504Z,98284.91
2023-01-07T08:37:16.122Z,98274.69
2023-01-07T08:40:20.986Z,98272.78
2023-01-07T08:43:25.084Z,98273.59
2023-01-07T08:46:28.464Z,98269.53
2023-01-07T08:49:32.875Z,98261.63
2023-01-07T08:52:36.603Z,98260.56
2023-01-07T08:55:41.285Z,98264.72
2023-01-07T08:58:44.675Z,98260.47
2023-01-07T09:01:50.268Z,98250.88
2023-01-07T09:04:53.795Z,98256.03
2023-01-07T09:07:57.646Z,98261.00
2023-01-07T09:11:02.258Z,98252.44
2023-01-07T09:14:05.873Z,98240.44
2023-01-07T09:17:09.307Z,98242.72
2023-01-07T09:20:12.801Z,98229.91
2023-01-07T09:23:16.029Z,98217.16
2023-01-07T09:26:21.344Z,98239.00
2023-01-07T09:29:24.866Z,98233.03
2023-01-07T09:32:29.106Z,98192.50
2023-01-07T09:35:32.494Z,98216.88
2023-01-07T09:38:36.555Z,98235.22
2023-01-07T09:41:50.451Z,98230.09
2023-01-07T09:45:12.555Z,98226.22
2023-01-07T09:48:22.171Z,98209.00
2023-01-07T09:51:33.680Z,98213.16
2023-01-07T09:54:39.558Z,98217.09
2023-01-07T09:57:44.481Z,98227.41
2023-01-07T10:01:01.268Z,98224.78
2023-01-07T10:04:20.195Z,98217.16
2023-01-07T10:07:32.820Z,98201.50
2023-01-07T10:10:45.438Z,98199.59
2023-01-07T10:14:02.636Z,98188.13
2023-01-07T10:17:19.510Z,98161.66
2023-01-07T10:20:33.021Z,98161.72
2023-01-07T10:23:42.302Z,98161.38
2023-01-07T10:26:50.819Z,98154.66
2023-01-07T10:29:59.580Z,98134.16
2023-01-07T10:34:38.488Z,98152.88
2023-01-07T10:37:44.380Z,98142.41
2023-01-07T10:40:55.418Z,98137.78
2023-01-07T10:44:18.691Z,98112.16
2023-01-07T10:47:32.548Z,98128.03
2023-01-07T10:50:56.636Z,98091.47
2023-01-07T10:54:10.052Z,98111.06
2023-01-07T10:57:17.807Z,98062.28
2023-01-07T11:00:21.601Z,98103.22
2023-01-07T11:03:25.777Z,98102.63
2023-01-07T11:06:39.692Z,98105.06
2023-01-07T11:09:45.244Z,98093.34
2023-01-07T11:12:54.522Z,98085.22
2023-01-07T11:16:01.758Z,98084.31
2023-01-07T11:19:07.123Z,98077.63
2023-01-07T11:22:30.037Z,98079.06
2023-01-07T11:25:33.423Z,98073.94
2023-01-07T11:28:38.528Z,98041.56
2023-01-07T11:31:49.816Z,98064.84
2023-01-07T11:34:57.406Z,98068.66
2023-01-07T11:38:02.146Z,98054.03
2023-01-07T11:41:08.748Z,98024.22
2023-01-07T11:44:16.799Z,98042.97
2023-01-07T11:47:21.100Z,98033.66
2023-01-07T11:50:27.731Z,98029.63
2023-01-07T11:53:37.138Z,98019.56
2023-01-07T11:56:40.701Z,98021.38
2023-01-07T11:59:43.986Z,97962.81
2023-01-07T12:03:00.756Z,98004.81
2023-01-07T12:06:09.891Z,97998.31
2023-01-07T12:09:25.033Z,97995.94
2023-01-07T12:12:37.013Z,97995.22
2023-01-07T12:15:50.795Z,97997.22
2023-01-07T12:19:05.862Z,97989.94
2023-01-07T12:22:21.820Z,97960.69
2023-01-07T12:25:35.959Z,97986.44
2023-01-07T12:28:59.132Z,97979.81
2023-01-07T12:32:14.360Z,97979.53
2023-01-07T12:35:24.367Z,97981.81
2023-01-07T12:38:35.366Z,97977.88
2023-01-07T12:41:44.487Z,97980.00
2023-01-07T12:44:53.235Z,97975.28
2023-01-07T12:48:02.481Z,97976.84
2023-01-07T12:51:09.848Z,97972.84
2023-01-07T12:54:19.718Z,97969.56
2023-01-07T12:57:29.222Z,97968.25
2023-01-07T13:00:37.584Z,97953.06
2023-01-07T13:03:50.527Z,97948.94
2023-01-07T13:06:58.733Z,97942.31
2023-01-07T13:10:07.228Z,97934.41
2023-01-07T13:13:21.768Z,97926.13
2023-01-07T13:16:25.587Z,97924.75
2023-01-07T13:19:29.120Z,97897.91
2023-01-07T13:22:37.029Z,97911.94
2023-01-07T13:26:10.370Z,97910.47
2023-01-07T13:29:23.851Z,97898.09
2023-01-07T13:32:48.340Z,97902.94
2023-01-07T13:36:22.373Z,97896.56
2023-01-07T13:40:00.242Z,97880.56
2023-01-07T13:43:38.241Z,97881.81
2023-01-07T13:47:04.953Z,97887.72
2023-01-07T13:50:19.790Z,97857.69
2023-01-07T13:53:46.901Z,97871.53
2023-01-07T13:56:50.877Z,97878.72
2023-01-07T13:59:56.345Z,97873.97
2023-01-07T14:03:01.469Z,97864.69
2023-01-07T14:06:39.136Z,97871.03
2023-01-07T14:09:42.999Z,97876.38
2023-01-07T14:13:13.472Z,97872.53
2023-01-07T14:16:25.072Z,97864.34
2023-01-07T14:19:40.375Z,97859.44
2023-01-07T14:22:53.307Z,97863.44
2023-01-07T14:26:16.168Z,97851.84
2023-01-07T14:29:39.784Z,97858.19
2023-01-07T14:32:43.317Z,97865.88
2023-01-07T14:35:56.175Z,97869.78
2023-01-07T14:39:00.327Z,97864.34
2023-01-07T14:42:50.321Z,97866.59
2023-01-07T14:45:55.590Z,97855.31
2023-01-07T14:49:23.339Z,97856.81
2023-01-07T14:52:57.027Z,97858.03
2023-01-07T14:56:18.179Z,97856.63
2023-01-07T14:59:41.790Z,97860.34
2023-01-07T15:03:23.515Z,97858.03
2023-01-07T15:06:32.127Z,97855.63
2023-01-07T15:10:00.295Z,97855.84
2023-01-07T15:13:21.274Z,97851.59
2023-01-07T15:16:25.392Z,97863.03
2023-01-07T15:19:28.839Z,97858.25
2023-01-07T15:22:46.253Z,97853.13
2023-01-07T15:25:57.885Z,97853.84
2023-01-07T15:29:12.105Z,97859.47
2023-01-07T15:32:28.139Z,97862.78
2023-01-07T15:35:35.380Z,97863.28
2023-01-07T15:38:44.491Z,97861.69
2023-01-07T15:41:53.243Z,97859.13
2023-01-07T15:44:59.303Z,97873.13
2023-01-07T15:48:13.069Z,97873.66
2023-01-07T15:51:17.648Z,97870.50
2023-01-07T15:54:30.410Z,97858.09
2023-01-07T15:57:37.006Z,97868.81
2023-01-07T16:00:40.523Z,97867.75
2023-01-07T16:03:44.747Z,97872.34
2023-01-07T16:06:51.040Z,97874.13
2023-01-07T16:09:55.462Z,97867.53
2023-01-07T16:13:02.128Z,97875.50
2023-01-07T16:16:06.749Z,97881.88
2023-01-07T16:19:17.545Z,97870.94
2023-01-07T16:22:23.842Z,97877.66
2023-01-07T16:25:34.969Z,97870.75
2023-01-07T16:28:42.651Z,97870.16
2023-01-07T16:35:04.812Z,97874.19
2023-01-07T16:38:09.349Z,97871.41
2023-01-07T16:41:22.025Z,97876.38
2023-01-07T16:44:59.256Z,97874.19
2023-01-07T16:48:19.285Z,97869.16
2023-01-07T16:51:39.658Z,97850.50
2023-01-07T16:54:44.618Z,97880.28
2023-01-07T16:57:47.999Z,97865.44
2023-01-07T17:00:53.407Z,97873.06
2023-01-07T17:03:59.690Z,97833.34
2023-01-07T17:07:04.879Z,97841.09
2023-01-07T17:10:18.137Z,97857.25
2023-01-07T17:13:35.227Z,97842.50
2023-01-07T17:16:39.660Z,97850.50
2023-01-07T17:19:47.833Z,97842.94
2023-01-07T17:22:52.757Z,97842.47
2023-01-07T17:25:57.592Z,97843.09
2023-01-07T17:29:04.835Z,97850.44
2023-01-07T17:32:08.215Z,97849.34
2023-01-07T17:35:19.584Z,97781.41
2023-01-07T17:38:24.675Z,97844.44
2023-01-07T17:41:45.498Z,97845.78
2023-01-07T17:44:50.951Z,97832.56
2023-01-07T17:47:54.264Z,97833.81
2023-01-07T17:51:00.538Z,97846.72
2023-01-07T17:54:07.123Z,97831.59
2023-01-07T17:57:13.175Z,97853.88
2023-01-07T18:00:20.311Z,97862.75
2023-01-07T18:03:24.011Z,97840.22
2023-01-07T18:06:28.250Z,97870.88
2023-01-07T18:09:33.213Z,97857.28
2023-01-07T18:12:36.542Z,97870.16
2023-01-07T18:15:39.921Z,97866.69
2023-01-07T18:18:43.450Z,97850.50
2023-01-07T18:21:47.580Z,97845.75
2023-01-07T18:24:54.427Z,97850.97
2023-01-07T18:27:58.170Z,97841.22
2023-01-07T18:31:01.660Z,97840.22
2023-01-07T18:34:05.114Z,97846.88
2023-01-07T18:37:08.531Z,97847.91
2023-01-07T18:40:13.534Z,97838.19
2023-01-07T18:43:19.655Z,97840.00
2023-01-07T18:46:23.573Z,97837.63
2023-01-07T18:49:29.416Z,97833.19
2023-01-07T18:52:33.901Z,97770.44
2023-01-07T18:55:39.796Z,97838.06
2023-01-07T18:58:44.340Z,97841.97
2023-01-07T19:01:48.610Z,97831.34
2023-01-07T19:04:52.263Z,97838.75
2023-01-07T19:07:56.250Z,97845.75
2023-01-07T19:11:01.020Z,97788.84
2023-01-07T19:14:04.404Z,97839.78
2023-01-07T19:17:09.075Z,97815.28
2023-01-07T19:20:15.340Z,97802.53
2023-01-07T19:23:20.905Z,97842.34
2023-01-07T19:26:26.745Z,97839.19
2023-01-07T19:29:30.289Z,97840.34
2023-01-07T19:32:33.827Z,97824.03
2023-01-07T19:35:37.272Z,97821.66
2023-01-07T19:38:41.707Z,97824.53
2023-01-07T19:41:47.372Z,97826.88
2023-01-07T19:44:51.232Z,97817.94
2023-01-07T19:47:54.471Z,97820.38
2023-01-07T19:50:59.005Z,97818.69
2023-01-07T19:54:03.169Z,97792.50
2023-01-07T19:57:07.831Z,97812.91
2023-01-07T20:00:12.551Z,97808.78
2023-01-07T20:03:16.163Z,97799.91
2023-01-07T20:06:22.292Z,97788.47
2023-01-07T20:09:25.730Z,97793.50
2023-01-07T20:12:30.833Z,97785.91
2023-01-07T20:15:34.233Z,97789.56
2023-01-07T20:18:39.017Z,97752.31
2023-01-07T20:21:42.429Z,97786.16
2023-01-07T20:24:46.733Z,97778.94
2023-01-07T20:27:53.535Z,97781.72
2023-01-07T20:30:57.033Z,97778.84
2023-01-07T20:34:01.388Z,97773.69
2023-01-07T20:37:05.499Z,97780.78
2023-01-07T20:40:09.958Z,97782.63
2023-01-07T20:43:15.092Z,97761.81
2023-01-07T20:46:21.378Z,97777.00
2023-01-07T20:49:25.086Z,97762.56
2023-01-07T20:52:28.396Z,97760.75
2023-01-07T20:55:34.596Z,97748.06
2023-01-07T20:58:39.663Z,97722.34
2023-01-07T21:01:43.315Z,97745.50
2023-01-07T21:04:46.851Z,97754.47
2023-01-07T21:07:54.134Z,97754.72
2023-01-07T21:10:57.553Z,97750.47
2023-01-07T21:14:06.059Z,97751.03
2023-01-07T21:17:10.632Z,97747.81
2023-01-07T21:20:18.156Z,97738.09
2023-01-07T21:23:22.653Z,97741.66
2023-01-07T21:26:37.189Z,97736.38
2023-01-07T21:29:42.735Z,97743.97
2023-01-07T21:32:47.326Z,97748.47
2023-01-07T21:35:51.909Z,97736.97
2023-01-07T21:39:04.183Z,97694.78
2023-01-07T21:42:09.319Z,97743.69
2023-01-07T21:45:15.019Z,97744.06
2023-01-07T21:48:18.527Z,97726.91
2023-01-07T21:51:25.641Z,97739.59
2023-01-07T21:54:29.343Z,97728.63
2023-01-07T21:57:36.245Z,97740.28
2023-01-07T22:00:45.444Z,97744.00
2023-01-07T22:03:50.604Z,97744.31
2023-01-07T22:06:55.233Z,97682.66
2023-01-07T22:09:58.465Z,97736.00
2023-01-07T22:13:01.991Z,97749.03
2023-01-07T22:16:09.197Z,97731.69
2023-01-07T22:19:13.482Z,97758.91
2023-01-07T22:22:19.384Z,97752.66
2023-01-07T22:25:26.070Z,97754.41
2023-01-07T22:28:34.313Z,97731.91
2023-01-07T22:34:28.620Z,97729.09
2023-01-07T22:37:32.059Z,97746.34
2023-01-07T22:40:38.911Z,97756.28
2023-01-07T22:43:42.616Z,97736.06
2023-01-07T22:46:49.809Z,97749.75
2023-01-07T22:49:57.723Z,97749.84
2023-01-07T22:53:01.101Z,97749.50
2023-01-07T22:56:05.392Z,97745.50
2023-01-07T22:59:08.709Z,97730.16
2023-01-07T23:02:12.186Z,97735.69
2023-01-07T23:05:17.127Z,97735.81
2023-01-07T23:08:22.804Z,97721.91
2023-01-07T23:11:43.484Z,97708.41
2023-01-07T23:14:46.689Z,97732.56
2023-01-07T23:17:52.023Z,97723.25
2023-01-07T23:20:58.407Z,97709.06
2023-01-07T23:24:05.275Z,97710.63
2023-01-07T23:27:08.633Z,97675.28
2023-01-07T23:30:15.359Z,97695.09
2023-01-07T23:33:22.726Z,97659.75
2023-01-07T23:36:27.316Z,97669.53
2023-01-07T23:39:30.632Z,97668.56
2023-01-07T23:42:34.009Z,97652.31
2023-01-07T23:45:39.144Z,97676.16
2023-01-07T23:48:42.451Z,97650.47
2023-01-07T23:51:47.434Z,97659.03
2023-01-07T23:54:52.893Z,97671.28
2023-01-07T23:57:56.498Z,97636.19
